Time;durP1;ratioP1;P1;durP2;ratioP2;P2;SDS_P1;SDS_P2;PMS_P1;PMS_P2;Temp;Humidity;BMP_temperature;BMP_pressure;BME280_temperature;BME280_humidity;BME280_pressure;Samples;Min_cycle;Max_cycle;Signal;HPM_P1;HPM_P2
2023/05/01 00:00:29;;;;;;;;;;;;;;;12.72;86.19;99706.41;5098405;28;19979;-96
2023/05/01 00:03:13;;;;;;;;;;;;;;;12.67;86.26;99708.31;5055745;28;20346;-96
2023/05/01 00:05:38;;;;;;;;;;;;;;;12.80;85.46;99697.44;5038995;28;19947;-96
2023/05/01 00:08:05;;;;;;;;;;;;;;;13.11;84.52;99699.31;5038195;28;19916;-95
2023/05/01 00:10:35;;;;;;;;;;;;;;;13.31;83.22;99689.06;5071286;28;19912;-92
2023/05/01 00:13:00;;;;;;;;;;;;;;;13.46;82.46;99684.34;5038244;28;19916;-94
2023/05/01 00:15:27;;;;;;;;;;;;;;;13.75;81.61;99678.22;5070862;28;19912;-93
2023/05/01 00:17:54;;;;;;;;;;;;;;;13.65;82.24;99669.66;5070826;28;20011;-96
2023/05/01 00:20:22;;;;;;;;;;;;;;;13.67;82.30;99667.84;5054061;28;19912;-96
2023/05/01 00:22:47;;;;;;;;;;;;;;;13.77;81.99;99666.66;5053643;28;19913;-96
2023/05/01 00:25:13;;;;;;;;;;;;;;;13.81;81.39;99664.81;5054928;28;20007;-95
2023/05/01 00:27:39;;;;;;;;;;;;;;;13.93;81.20;99658.25;5070946;28;19916;-92
2023/05/01 00:30:06;;;;;;;;;;;;;;;14.04;80.17;99653.53;5037284;28;19939;-94
2023/05/01 00:32:33;;;;;;;;;;;;;;;14.04;79.38;99655.28;5036297;28;19916;-94
2023/05/01 00:34:58;;;;;;;;;;;;;;;14.06;78.60;99648.16;5095594;28;19997;-95
2023/05/01 00:37:25;;;;;;;;;;;;;;;14.15;78.76;99648.75;5095461;28;19912;-95
2023/05/01 00:39:50;;;;;;;;;;;;;;;14.12;79.13;99646.19;5101807;28;20006;-92
2023/05/01 00:42:21;;;;;;;;;;;;;;;14.10;79.43;99650.69;5116629;28;19923;-93
2023/05/01 00:44:54;;;;;;;;;;;;;;;13.82;80.70;99649.75;5133661;28;19896;-90
2023/05/01 00:47:25;;;;;;;;;;;;;;;13.68;82.23;99661.59;5130961;28;19911;-94
2023/05/01 00:49:53;;;;;;;;;;;;;;;13.78;82.06;99657.78;5125848;28;19912;-94
2023/05/01 00:52:19;;;;;;;;;;;;;;;13.70;81.72;99661.56;5096009;28;19955;-92
2023/05/01 00:54:50;;;;;;;;;;;;;;;13.80;81.19;99668.34;5104001;28;19924;-95
2023/05/01 00:57:17;;;;;;;;;;;;;;;13.70;81.65;99673.06;5102440;28;19924;-94
2023/05/01 00:59:43;;;;;;;;;;;;;;;13.66;81.51;99674.03;5097867;28;19920;-94
2023/05/01 01:02:11;;;;;;;;;;;;;;;13.72;81.06;99673.88;5114034;28;19923;-96
2023/05/01 01:04:39;;;;;;;;;;;;;;;13.73;80.20;99672.97;5112723;28;20396;-96
2023/05/01 01:07:11;;;;;;;;;;;;;;;13.64;80.32;99670.59;5111783;28;19916;-95
2023/05/01 01:09:36;;;;;;;;;;;;;;;13.71;80.85;99668.63;5094797;28;19912;-96
2023/05/01 01:12:14;;;;;;;;;;;;;;;13.72;80.35;99671.22;5097886;28;20008;-95
2023/05/01 01:15:10;;;;;;;;;;;;;;;13.72;80.11;99665.06;5077910;28;19920;-94
2023/05/01 01:17:55;;;;;;;;;;;;;;;13.69;80.60;99675.75;5097465;28;20381;-96
2023/05/01 01:23:44;;;;;;;;;;;;;;;13.78;80.25;99678.16;5196410;22;19946;-94
2023/05/01 01:26:28;;;;;;;;;;;;;;;13.37;81.82;99678.34;5099875;28;19919;-96
2023/05/01 01:29:12;;;;;;;;;;;;;;;13.31;82.00;99686.44;5106111;28;19938;-96
2023/05/01 01:32:00;;;;;;;;;;;;;;;13.31;82.01;99683.78;5109474;28;20381;-96
2023/05/01 01:34:32;;;;;;;;;;;;;;;13.35;82.38;99679.31;5099843;28;19922;-96
2023/05/01 01:37:25;;;;;;;;;;;;;;;13.42;82.04;99678.22;5117644;28;19915;-96
2023/05/01 01:40:14;;;;;;;;;;;;;;;13.37;82.03;99685.44;5125207;28;19912;-96
2023/05/01 01:43:00;;;;;;;;;;;;;;;13.30;81.98;99697.06;5098637;28;19980;-96
2023/05/01 01:45:35;;;;;;;;;;;;;;;13.28;82.18;99701.53;5094206;28;19929;-95
2023/05/01 01:48:01;;;;;;;;;;;;;;;13.08;83.18;99706.44;5071594;28;19941;-96
2023/05/01 01:50:27;;;;;;;;;;;;;;;13.02;82.90;99698.66;5085620;28;19911;-96
2023/05/01 01:52:57;;;;;;;;;;;;;;;13.20;82.04;99701.75;5094554;28;19975;-95
2023/05/01 01:55:26;;;;;;;;;;;;;;;13.00;82.01;99700.44;5094354;28;19912;-95
2023/05/01 01:57:55;;;;;;;;;;;;;;;12.80;82.08;99700.94;5099160;28;19922;-96
2023/05/01 02:00:21;;;;;;;;;;;;;;;12.74;81.30;99698.44;5098485;28;19916;-95
2023/05/01 02:02:47;;;;;;;;;;;;;;;12.61;80.89;99699.66;5095339;28;19915;-96
2023/05/01 02:05:14;;;;;;;;;;;;;;;12.66;81.03;99700.41;5098458;28;19915;-96
2023/05/01 02:07:42;;;;;;;;;;;;;;;12.70;81.05;99694.16;5079165;28;20377;-95
2023/05/01 02:10:08;;;;;;;;;;;;;;;12.70;80.79;99691.50;5111325;28;19916;-93
2023/05/01 02:12:34;;;;;;;;;;;;;;;12.76;80.61;99694.00;5092921;28;20284;-94
2023/05/01 02:15:00;;;;;;;;;;;;;;;12.80;79.79;99695.66;5093150;28;20431;-94
2023/05/01 02:17:28;;;;;;;;;;;;;;;12.79;80.01;99695.69;5113144;28;20373;-96
2023/05/01 02:22:52;;;;;;;;;;;;;;;12.71;80.38;99695.88;5128982;28;19922;-96
2023/05/01 02:31:30;;;;;;;;;;;;;;;12.75;80.52;99709.91;5209657;22;19942;-93
2023/05/01 02:34:03;;;;;;;;;;;;;;;12.76;79.77;99719.59;5098494;28;20397;-94
2023/05/01 02:36:28;;;;;;;;;;;;;;;12.56;80.40;99731.50;5099713;28;20271;-96
2023/05/01 02:38:58;;;;;;;;;;;;;;;12.50;80.92;99729.88;5116936;28;19908;-96
2023/05/01 02:41:26;;;;;;;;;;;;;;;12.41;81.25;99727.44;5099896;28;19916;-96
2023/05/01 02:43:54;;;;;;;;;;;;;;;12.24;82.17;99721.63;5097614;28;19915;-95
2023/05/01 02:46:26;;;;;;;;;;;;;;;12.41;81.40;99722.13;5097593;28;20007;-93
2023/05/01 02:48:52;;;;;;;;;;;;;;;12.35;81.16;99714.34;5097375;28;19958;-95
2023/05/01 02:51:18;;;;;;;;;;;;;;;12.38;80.46;99724.84;5096179;28;19930;-94
2023/05/01 02:53:45;;;;;;;;;;;;;;;12.28;81.27;99726.84;5099265;28;19920;-96
2023/05/01 02:56:11;;;;;;;;;;;;;;;12.18;81.47;99731.44;5081076;28;19915;-95
2023/05/01 02:58:37;;;;;;;;;;;;;;;12.05;82.63;99734.34;5096722;28;20015;-93
2023/05/01 03:01:02;;;;;;;;;;;;;;;12.21;82.02;99737.56;5096565;28;19911;-93
2023/05/01 03:03:28;;;;;;;;;;;;;;;12.28;81.46;99745.34;5095020;28;19915;-91
2023/05/01 03:05:54;;;;;;;;;;;;;;;12.30;81.52;99746.16;5114264;28;20009;-91
2023/05/01 03:08:20;;;;;;;;;;;;;;;12.40;80.64;99743.34;5113706;28;19911;-91
2023/05/01 03:10:45;;;;;;;;;;;;;;;12.36;80.93;99743.41;5113766;28;20017;-91
2023/05/01 03:13:13;;;;;;;;;;;;;;;12.29;80.92;99736.47;5096092;28;19922;-91
2023/05/01 03:15:39;;;;;;;;;;;;;;;12.33;81.16;99738.19;5113861;28;19922;-90
2023/05/01 03:18:05;;;;;;;;;;;;;;;12.22;81.69;99739.28;5113663;28;19916;-90
2023/05/01 03:20:30;;;;;;;;;;;;;;;12.18;82.03;99749.06;5113883;28;19911;-90
2023/05/01 03:22:56;;;;;;;;;;;;;;;12.12;82.06;99747.41;5113787;28;20361;-92
2023/05/01 03:25:21;;;;;;;;;;;;;;;12.18;82.44;99742.00;5113550;28;19915;-92
2023/05/01 03:27:48;;;;;;;;;;;;;;;12.29;81.67;99748.84;5094309;28;20071;-92
2023/05/01 03:30:18;;;;;;;;;;;;;;;12.37;81.19;99749.53;5113109;28;19911;-91
2023/05/01 03:32:43;;;;;;;;;;;;;;;12.31;82.18;99750.56;5084214;28;19919;-91
2023/05/01 03:35:11;;;;;;;;;;;;;;;12.44;82.31;99745.00;5074147;28;19981;-92
2023/05/01 03:37:42;;;;;;;;;;;;;;;12.43;82.96;99743.25;5074672;28;20007;-91
2023/05/01 03:40:18;;;;;;;;;;;;;;;12.41;82.82;99745.09;5093652;28;19916;-90
2023/05/01 03:43:11;;;;;;;;;;;;;;;12.36;82.93;99742.53;5094362;28;20353;-90
2023/05/01 03:45:49;;;;;;;;;;;;;;;;;;;;;
2023/05/01 03:48:26;;;;;;;;;;;;;;;12.55;83.03;99753.56;5112986;28;19934;-92
2023/05/01 03:54:10;;;;;;;;;;;;;;;12.59;82.56;99757.91;5049275;28;19960;-92
2023/05/01 03:56:50;;;;;;;;;;;;;;;12.74;81.95;99769.91;5009595;28;19913;-91
2023/05/01 03:59:17;;;;;;;;;;;;;;;12.87;81.30;99767.88;5009323;28;19960;-92
2023/05/01 04:01:56;;;;;;;;;;;;;;;12.73;80.90;99776.13;5009463;28;19914;-92
2023/05/01 04:04:38;;;;;;;;;;;;;;;12.80;81.54;99779.50;5009991;28;19920;-92
2023/05/01 04:07:12;;;;;;;;;;;;;;;13.03;81.76;99790.41;5010069;28;19909;-92
2023/05/01 04:10:06;;;;;;;;;;;;;;;13.22;81.43;99792.63;5008676;28;20630;-91
2023/05/01 04:12:31;;;;;;;;;;;;;;;13.33;80.93;99787.97;4973069;28;19909;-90
2023/05/01 04:14:56;;;;;;;;;;;;;;;13.34;80.82;99787.06;5006793;28;19924;-92
2023/05/01 04:17:22;;;;;;;;;;;;;;;13.47;80.82;99789.41;5009420;28;20375;-92
2023/05/01 04:19:48;;;;;;;;;;;;;;;13.74;79.28;99801.06;5015936;28;19917;-91
2023/05/01 04:22:13;;;;;;;;;;;;;;;13.63;79.89;99798.72;5051726;28;19924;-91
2023/05/01 04:24:38;;;;;;;;;;;;;;;13.74;80.24;99801.06;5089224;28;19922;-90
2023/05/01 04:27:11;;;;;;;;;;;;;;;13.65;80.66;99801.31;5101971;28;19919;-92
2023/05/01 04:29:37;;;;;;;;;;;;;;;13.76;80.71;99804.53;5104660;28;19996;-92
2023/05/01 04:32:02;;;;;;;;;;;;;;;13.84;80.27;99809.66;5107887;28;19942;-93
2023/05/01 04:34:33;;;;;;;;;;;;;;;14.04;78.10;99807.34;5110355;28;19899;-94
2023/05/01 04:37:02;;;;;;;;;;;;;;;14.00;78.14;99803.03;5098298;28;19915;-91
2023/05/01 04:39:28;;;;;;;;;;;;;;;14.21;77.14;99806.88;5085823;28;20454;-94
2023/05/01 04:41:53;;;;;;;;;;;;;;;14.27;76.39;99812.00;5082982;28;19911;-92
2023/05/01 04:44:19;;;;;;;;;;;;;;;14.32;75.34;99815.41;5086276;28;20413;-92
2023/05/01 04:46:44;;;;;;;;;;;;;;;14.37;75.85;99817.06;5102597;28;19937;-93
2023/05/01 04:49:10;;;;;;;;;;;;;;;14.56;74.37;99822.69;5086072;28;19996;-92
2023/05/01 04:51:35;;;;;;;;;;;;;;;14.55;75.34;99820.94;5083592;28;19939;-93
2023/05/01 04:54:03;;;;;;;;;;;;;;;14.58;74.88;99819.09;5102782;28;20218;-91
2023/05/01 04:56:37;;;;;;;;;;;;;;;14.66;75.18;99817.09;5082967;28;19912;-94
2023/05/01 05:02:30;;;;;;;;;;;;;;;14.87;72.76;99812.03;4932012;29;19923;-95
2023/05/01 05:05:07;;;;;;;;;;;;;;;15.22;71.98;99816.25;4916059;29;19918;-95
2023/05/01 05:07:32;;;;;;;;;;;;;;;15.66;70.92;99818.38;4930564;29;19915;-93
2023/05/01 05:09:59;;;;;;;;;;;;;;;15.83;68.10;99819.59;4931800;28;20362;-96
2023/05/01 05:12:27;;;;;;;;;;;;;;;15.92;65.80;99822.81;4916598;29;20018;-96
2023/05/01 05:14:58;;;;;;;;;;;;;;;15.96;64.46;99822.69;4932774;29;19965;-96
2023/05/01 05:17:26;;;;;;;;;;;;;;;15.69;65.32;99831.56;4914517;29;20397;-95
2023/05/01 05:19:51;;;;;;;;;;;;;;;15.74;64.05;99834.94;4932721;29;19954;-96
2023/05/01 05:22:17;;;;;;;;;;;;;;;16.42;64.71;99837.00;4931968;29;19922;-94
2023/05/01 05:25:12;;;;;;;;;;;;;;;16.71;64.25;99841.25;4968761;28;19922;-96
2023/05/01 05:27:37;;;;;;;;;;;;;;;17.05;63.13;99833.78;4953345;28;19921;-95
2023/05/01 05:30:04;;;;;;;;;;;;;;;17.45;62.19;99840.19;4961049;28;19914;-96
2023/05/01 05:32:30;;;;;;;;;;;;;;;17.55;62.20;99846.88;4951676;29;20033;-95
2023/05/01 05:34:56;;;;;;;;;;;;;;;17.73;60.18;99842.56;4956125;28;19961;-96
2023/05/01 05:37:24;;;;;;;;;;;;;;;17.78;58.54;99840.56;4940011;28;19972;-96
2023/05/01 05:39:50;;;;;;;;;;;;;;;17.69;57.73;99840.97;5049881;28;19916;-96
2023/05/01 05:42:22;;;;;;;;;;;;;;;17.35;59.95;99845.03;5075136;28;19919;-96
2023/05/01 05:44:47;;;;;;;;;;;;;;;17.27;59.39;99849.78;5079543;28;20004;-96
2023/05/01 05:47:13;;;;;;;;;;;;;;;17.61;59.74;99853.72;5076680;28;19912;-94
2023/05/01 05:50:14;;;;;;;;;;;;;;;17.68;59.85;99853.41;5092106;28;20408;-93
2023/05/01 05:55:42;;;;;;;;;;;;;;;18.02;59.24;99860.03;5005819;28;19975;-91
2023/05/01 05:58:18;;;;;;;;;;;;;;;18.38;59.06;99850.47;5006118;28;19917;-90
2023/05/01 06:00:45;;;;;;;;;;;;;;;18.19;59.84;99861.09;4991376;28;19920;-92
2023/05/01 06:03:14;;;;;;;;;;;;;;;18.42;58.79;99855.59;4989651;28;20399;-88
2023/05/01 06:05:41;;;;;;;;;;;;;;;18.72;57.64;99862.28;4992110;28;20004;-92
2023/05/01 06:08:09;;;;;;;;;;;;;;;18.74;57.37;99857.75;4990076;28;20030;-91
2023/05/01 06:10:35;;;;;;;;;;;;;;;18.64;58.15;99861.78;5006719;28;19922;-90
2023/05/01 06:13:00;;;;;;;;;;;;;;;18.48;58.79;99861.63;4990957;28;20007;-90
2023/05/01 06:15:26;;;;;;;;;;;;;;;18.81;57.77;99869.88;5009120;28;20812;-89
2023/05/01 06:17:51;;;;;;;;;;;;;;;18.86;57.79;99872.38;5006550;28;19913;-90
2023/05/01 06:20:16;;;;;;;;;;;;;;;18.89;56.46;99877.56;5007281;28;19933;-91
2023/05/01 06:22:43;;;;;;;;;;;;;;;19.18;54.47;99883.38;5005825;28;19928;-91
2023/05/01 06:25:10;;;;;;;;;;;;;;;19.16;57.16;99874.56;5008139;28;19996;-91
2023/05/01 06:27:35;;;;;;;;;;;;;;;19.43;55.95;99883.03;5025390;28;20393;-90
2023/05/01 06:30:01;;;;;;;;;;;;;;;20.01;53.81;99884.66;5106603;28;20020;-92
2023/05/01 06:32:32;;;;;;;;;;;;;;;20.16;52.99;99875.00;5091469;28;20370;-90
2023/05/01 06:34:58;;;;;;;;;;;;;;;20.07;55.87;99878.16;5063989;28;19923;-89
2023/05/01 06:37:28;;;;;;;;;;;;;;;20.53;55.47;99884.63;5040459;28;19916;-90
2023/05/01 06:39:56;;;;;;;;;;;;;;;21.06;50.83;99882.69;5020540;28;19917;-89
2023/05/01 06:42:50;;;;;;;;;;;;;;;21.15;50.45;99892.03;5025310;28;19913;-89
2023/05/01 06:45:16;;;;;;;;;;;;;;;21.19;49.84;99890.91;4995151;28;19924;-88
2023/05/01 06:47:41;;;;;;;;;;;;;;;21.34;49.49;99888.31;5007135;28;19918;-88
2023/05/01 06:50:07;;;;;;;;;;;;;;;21.91;48.64;99887.75;5015731;28;19927;-89
2023/05/01 06:52:32;;;;;;;;;;;;;;;21.89;48.14;99882.47;5024369;28;19916;-88
2023/05/01 06:54:58;;;;;;;;;;;;;;;21.27;49.56;99899.41;5034319;28;19983;-89
2023/05/01 06:57:23;;;;;;;;;;;;;;;21.43;49.75;99885.13;5022334;28;19956;-90
2023/05/01 07:00:00;;;;;;;;;;;;;;;21.88;48.18;99893.31;5054767;28;19912;-93
2023/05/01 07:02:29;;;;;;;;;;;;;;;22.27;48.53;99891.88;5046580;28;20405;-93
2023/05/01 07:08:09;;;;;;;;;;;;;;;22.23;49.00;99884.94;5102297;28;20350;-94
2023/05/01 07:10:34;;;;;;;;;;;;;;;22.09;48.95;99908.16;5082313;28;19911;-92
2023/05/01 07:13:06;;;;;;;;;;;;;;;22.55;48.61;99901.84;5089879;28;19915;-96
2023/05/01 07:15:47;;;;;;;;;;;;;;;22.79;46.81;99902.13;5079490;28;20408;-86
2023/05/01 07:18:16;;;;;;;;;;;;;;;23.38;46.28;99902.00;5101827;28;19933;-88
2023/05/01 07:20:42;;;;;;;;;;;;;;;23.11;46.27;99901.97;5089775;28;19916;-84
2023/05/01 07:23:08;;;;;;;;;;;;;;;23.24;47.13;99904.72;5105787;28;19926;-89
2023/05/01 07:25:36;;;;;;;;;;;;;;;22.98;46.41;99898.28;5103198;28;19922;-86
2023/05/01 07:28:03;;;;;;;;;;;;;;;22.92;47.43;99907.59;5103782;28;19911;-82
2023/05/01 07:30:29;;;;;;;;;;;;;;;23.29;46.79;99904.44;5101621;28;19939;-82
2023/05/01 07:32:56;;;;;;;;;;;;;;;23.69;45.72;99904.50;5106707;28;19920;-83
2023/05/01 07:35:21;;;;;;;;;;;;;;;24.30;44.10;99896.84;5094650;28;20288;-86
2023/05/01 07:37:50;;;;;;;;;;;;;;;24.27;42.50;99900.59;5111613;28;20089;-89
2023/05/01 07:40:15;;;;;;;;;;;;;;;24.29;44.81;99908.59;5093167;28;19950;-83
2023/05/01 07:42:41;;;;;;;;;;;;;;;24.79;42.27;99909.63;5082734;28;19950;-82
2023/05/01 07:45:06;;;;;;;;;;;;;;;24.30;43.55;99913.03;5112312;28;20329;-86
2023/05/01 07:47:32;;;;;;;;;;;;;;;24.24;43.49;99903.50;5113243;28;19918;-88
2023/05/01 07:49:57;;;;;;;;;;;;;;;23.76;41.94;99908.53;5096697;28;19920;-90
2023/05/01 07:52:23;;;;;;;;;;;;;;;24.27;42.93;99911.38;5091599;28;19919;-88
2023/05/01 07:54:49;;;;;;;;;;;;;;;25.03;40.90;99909.69;5091558;28;19999;-89
2023/05/01 07:57:15;;;;;;;;;;;;;;;25.17;41.95;99911.38;5112118;28;19916;-88
2023/05/01 07:59:40;;;;;;;;;;;;;;;25.85;40.05;99908.28;5093492;28;19911;-92
2023/05/01 08:02:06;;;;;;;;;;;;;;;25.94;39.02;99910.28;5111446;28;19935;-88
2023/05/01 08:04:31;;;;;;;;;;;;;;;25.84;38.55;99912.81;5110056;28;19961;-89
2023/05/01 08:06:56;;;;;;;;;;;;;;;25.93;39.09;99908.53;5112142;28;19912;-88
2023/05/01 08:09:22;;;;;;;;;;;;;;;25.70;38.06;99916.56;5112338;28;20144;-88
2023/05/01 08:11:47;;;;;;;;;;;;;;;25.74;38.79;99909.94;5094331;28;19962;-88
2023/05/01 08:14:12;;;;;;;;;;;;;;;25.45;39.04;99911.25;5094035;28;19912;-89
2023/05/01 08:16:38;;;;;;;;;;;;;;;25.57;36.55;99907.63;5094081;28;20455;-88
2023/05/01 08:19:03;;;;;;;;;;;;;;;25.91;36.95;99911.38;5094457;28;20110;-90
2023/05/01 08:21:28;;;;;;;;;;;;;;;25.94;37.42;99904.03;5093917;28;19912;-89
2023/05/01 08:23:54;;;;;;;;;;;;;;;26.31;35.89;99903.94;5094081;28;20305;-88
2023/05/01 08:26:20;;;;;;;;;;;;;;;25.65;37.19;99917.88;5112936;28;20288;-87
2023/05/01 08:28:45;;;;;;;;;;;;;;;25.12;37.90;99915.41;5112825;28;19916;-88
2023/05/01 08:31:10;;;;;;;;;;;;;;;25.24;39.11;99913.66;5094030;28;19920;-87
2023/05/01 08:33:36;;;;;;;;;;;;;;;24.89;36.08;99919.75;5093913;28;19920;-88
2023/05/01 08:36:01;;;;;;;;;;;;;;;24.90;37.68;99905.28;5093870;28;19911;-88
2023/05/01 08:38:27;;;;;;;;;;;;;;;25.25;37.58;99913.53;5093422;28;19916;-88
2023/05/01 08:40:53;;;;;;;;;;;;;;;25.31;38.10;99890.66;5093430;28;19931;-90
2023/05/01 08:43:18;;;;;;;;;;;;;;;25.88;37.37;99905.34;5111246;28;19926;-88
2023/05/01 08:45:45;;;;;;;;;;;;;;;25.61;36.34;99916.38;5111523;28;19964;-89
2023/05/01 08:48:11;;;;;;;;;;;;;;;25.62;37.25;99902.75;5111474;28;20300;-88
2023/05/01 08:50:38;;;;;;;;;;;;;;;25.69;35.51;99903.16;5092944;28;20384;-90
2023/05/01 08:53:07;;;;;;;;;;;;;;;26.12;35.77;99901.78;5092339;28;19923;-90
2023/05/01 08:55:34;;;;;;;;;;;;;;;25.81;35.34;99904.97;5111012;28;20241;-91
2023/05/01 08:58:02;;;;;;;;;;;;;;;25.32;35.85;99904.06;5111214;28;20424;-91
2023/05/01 09:00:38;;;;;;;;;;;;;;;25.32;36.66;99901.34;5092817;28;19918;-92
2023/05/01 09:03:04;;;;;;;;;;;;;;;25.29;37.49;99904.28;5093344;28;20396;-91
2023/05/01 09:05:32;;;;;;;;;;;;;;;25.20;36.67;99903.06;5092677;28;19933;-90
2023/05/01 09:07:58;;;;;;;;;;;;;;;24.64;39.03;99895.38;5093030;28;19919;-90
2023/05/01 09:10:24;;;;;;;;;;;;;;;24.77;40.40;99895.38;5092529;28;19914;-90
2023/05/01 09:12:57;;;;;;;;;;;;;;;24.78;38.41;99894.41;5092646;28;19923;-91
2023/05/01 09:15:32;;;;;;;;;;;;;;;24.92;38.89;99890.72;5092877;28;19908;-90
2023/05/01 09:17:59;;;;;;;;;;;;;;;24.72;36.19;99894.84;5092829;28;19916;-91
2023/05/01 09:20:27;;;;;;;;;;;;;;;24.86;35.72;99891.16;5092575;28;19911;-91
2023/05/01 09:22:56;;;;;;;;;;;;;;;24.52;36.75;99892.66;5093027;28;19919;-90
2023/05/01 09:25:22;;;;;;;;;;;;;;;24.94;36.61;99896.00;5092374;28;19925;-91
2023/05/01 09:27:48;;;;;;;;;;;;;;;25.36;36.58;99894.75;5092300;28;19923;-90
2023/05/01 09:30:48;;;;;;;;;;;;;;;25.11;36.46;99890.25;5092049;28;19927;-91
2023/05/01 09:33:15;;;;;;;;;;;;;;;24.64;35.24;99890.00;5011638;28;19917;-87
2023/05/01 09:35:58;;;;;;;;;;;;;;;24.29;37.49;99884.34;5028256;28;19921;-89
2023/05/01 09:38:24;;;;;;;;;;;;;;;24.30;38.32;99886.91;5027488;28;20323;-90
2023/05/01 09:40:51;;;;;;;;;;;;;;;24.35;37.44;99886.59;5027994;28;19919;-89
2023/05/01 09:43:24;;;;;;;;;;;;;;;24.08;37.23;99886.66;5028594;28;19974;-90
2023/05/01 09:46:00;;;;;;;;;;;;;;;24.23;37.13;99887.44;5028406;28;19925;-90
2023/05/01 09:48:25;;;;;;;;;;;;;;;24.57;36.23;99887.81;5028472;28;19913;-90
2023/05/01 09:50:51;;;;;;;;;;;;;;;24.71;34.72;99885.00;5028571;28;20542;-90
2023/05/01 09:56:19;;;;;;;;;;;;;;;24.23;37.15;99885.59;5028785;28;19924;-90
2023/05/01 09:58:45;;;;;;;;;;;;;;;24.22;36.48;99880.31;5028342;28;20039;-91
2023/05/01 10:01:14;;;;;;;;;;;;;;;24.13;36.97;99892.63;5012152;28;19925;-91
2023/05/01 10:03:39;;;;;;;;;;;;;;;24.16;36.59;99878.06;5009679;28;19920;-91
2023/05/01 10:06:09;;;;;;;;;;;;;;;24.01;38.76;99888.91;5014622;28;20003;-90
2023/05/01 10:08:44;;;;;;;;;;;;;;;23.85;36.91;99891.78;5109738;28;19984;-89
2023/05/01 10:11:11;;;;;;;;;;;;;;;23.83;35.88;99885.59;5110036;28;19911;-90
2023/05/01 10:13:36;;;;;;;;;;;;;;;23.97;37.25;99883.84;5092122;28;20016;-88
2023/05/01 10:16:06;;;;;;;;;;;;;;;23.75;36.89;99883.41;5110135;28;19955;-92
2023/05/01 10:18:32;;;;;;;;;;;;;;;23.76;37.38;99889.69;5110132;28;19922;-89
2023/05/01 10:20:59;;;;;;;;;;;;;;;23.72;37.43;99874.69;5109893;28;19916;-90
2023/05/01 10:23:25;;;;;;;;;;;;;;;23.52;38.24;99882.25;5109363;28;19977;-89
2023/05/01 10:25:57;;;;;;;;;;;;;;;23.72;40.51;99878.25;5109773;28;19915;-90
2023/05/01 10:28:24;;;;;;;;;;;;;;;23.53;36.66;99885.81;5109060;28;19976;-90
2023/05/01 10:30:50;;;;;;;;;;;;;;;23.95;38.40;99884.81;5106242;28;20308;-89
2023/05/01 10:33:15;;;;;;;;;;;;;;;24.00;36.40;99886.31;5106596;28;19961;-92
2023/05/01 10:36:10;;;;;;;;;;;;;;;23.96;36.96;99891.06;5087952;28;19959;-92
2023/05/01 10:41:57;;;;;;;;;;;;;;;23.45;37.23;99882.75;5051144;28;20366;-88
2023/05/01 10:44:24;;;;;;;;;;;;;;;23.68;38.18;99887.50;5038304;28;19913;-91
2023/05/01 10:46:54;;;;;;;;;;;;;;;23.19;39.04;99886.19;5044469;28;19924;-91
2023/05/01 10:49:40;;;;;;;;;;;;;;;23.07;38.46;99895.03;5037776;28;19919;-91
2023/05/01 10:52:20;;;;;;;;;;;;;;;23.28;36.89;99895.50;5037349;28;19913;-91
2023/05/01 10:57:46;;;;;;;;;;;;;;;23.21;38.60;99899.56;5010598;28;19917;-91
2023/05/01 11:00:12;;;;;;;;;;;;;;;23.23;39.35;99897.59;5005796;28;20426;-89
2023/05/01 11:02:37;;;;;;;;;;;;;;;23.50;38.81;99905.72;4993271;28;20623;-90
2023/05/01 11:05:03;;;;;;;;;;;;;;;23.37;40.19;99902.09;4999855;28;19917;-90
2023/05/01 11:07:30;;;;;;;;;;;;;;;22.78;40.88;99902.25;5006822;28;20354;-88
2023/05/01 11:09:59;;;;;;;;;;;;;;;22.65;39.78;99899.47;4997053;28;19910;-87
2023/05/01 11:12:50;;;;;;;;;;;;;;;22.88;40.46;99906.94;5001086;28;20381;-88
2023/05/01 11:15:25;;;;;;;;;;;;;;;23.36;36.91;99903.94;5004060;28;19913;-88
2023/05/01 11:17:51;;;;;;;;;;;;;;;23.42;38.57;99906.22;5011685;28;19917;-88
2023/05/01 11:20:25;;;;;;;;;;;;;;;23.38;36.99;99909.22;5017782;28;20233;-88
2023/05/01 11:22:52;;;;;;;;;;;;;;;23.49;35.49;99908.53;5027632;28;19921;-88
2023/05/01 11:25:19;;;;;;;;;;;;;;;23.47;35.78;99905.06;5025022;28;19913;-88
2023/05/01 11:27:51;;;;;;;;;;;;;;;23.44;39.57;99905.28;5010546;28;19991;-89
2023/05/01 11:30:17;;;;;;;;;;;;;;;23.75;36.86;99902.28;5024013;28;19944;-88
2023/05/01 11:32:44;;;;;;;;;;;;;;;23.99;36.79;99906.16;5024225;28;19953;-86
2023/05/01 11:35:19;;;;;;;;;;;;;;;24.00;36.37;99906.03;5092408;28;19915;-85
2023/05/01 11:37:45;;;;;;;;;;;;;;;23.65;36.18;99901.19;5094880;28;19972;-86
2023/05/01 11:40:27;;;;;;;;;;;;;;;23.38;36.62;99901.16;5073623;28;20377;-85
2023/05/01 11:43:02;;;;;;;;;;;;;;;23.45;35.18;99901.59;5090947;28;20014;-84
2023/05/01 11:45:28;;;;;;;;;;;;;;;22.98;40.24;99900.97;5092227;28;19961;-84
2023/05/01 11:47:53;;;;;;;;;;;;;;;22.75;41.91;99889.84;5103821;28;19920;-85
2023/05/01 11:50:20;;;;;;;;;;;;;;;22.29;42.98;99889.94;5110645;28;19911;-84
2023/05/01 11:52:47;;;;;;;;;;;;;;;22.02;42.46;99896.03;5110080;28;19931;-85
2023/05/01 11:55:12;;;;;;;;;;;;;;;22.11;43.00;99889.25;5111994;28;19912;-84
2023/05/01 11:57:45;;;;;;;;;;;;;;;22.39;42.86;99887.63;5111804;28;19976;-86
2023/05/01 12:00:11;;;;;;;;;;;;;;;22.92;41.90;99883.41;5111515;28;20397;-86
2023/05/01 12:02:36;;;;;;;;;;;;;;;22.55;41.62;99888.38;5111944;28;19918;-85
2023/05/01 12:05:17;;;;;;;;;;;;;;;22.42;41.44;99884.75;5111376;28;19915;-86
2023/05/01 12:07:42;;;;;;;;;;;;;;;22.74;43.36;99882.75;5111549;28;20002;-85
2023/05/01 12:10:07;;;;;;;;;;;;;;;22.99;41.86;99883.91;5111773;28;19998;-86
2023/05/01 12:12:33;;;;;;;;;;;;;;;23.07;40.06;99877.03;5111669;28;20320;-84
2023/05/01 12:14:59;;;;;;;;;;;;;;;22.88;39.47;99880.03;5111836;28;19915;-85
2023/05/01 12:17:24;;;;;;;;;;;;;;;22.96;41.13;99878.72;5111331;28;20467;-85
2023/05/01 12:19:50;;;;;;;;;;;;;;;22.96;40.15;99884.94;5111527;28;19919;-85
2023/05/01 12:22:15;;;;;;;;;;;;;;;23.11;37.86;99882.25;5111231;28;19912;-86
2023/05/01 12:24:51;;;;;;;;;;;;;;;22.72;39.00;99881.97;5111737;28;19919;-84
2023/05/01 12:27:17;;;;;;;;;;;;;;;23.05;40.08;99887.03;5110384;28;19923;-86
2023/05/01 12:29:45;;;;;;;;;;;;;;;23.39;38.51;99871.44;5111588;28;19912;-84
2023/05/01 12:32:11;;;;;;;;;;;;;;;23.49;39.31;99874.38;5111372;28;19915;-85
2023/05/01 12:34:37;;;;;;;;;;;;;;;23.33;37.22;99874.53;5110609;28;19916;-85
2023/05/01 12:37:02;;;;;;;;;;;;;;;23.64;37.92;99877.91;5110782;28;19912;-86
2023/05/01 12:39:37;;;;;;;;;;;;;;;23.78;39.74;99879.66;5111133;28;19919;-84
2023/05/01 12:42:02;;;;;;;;;;;;;;;23.78;37.23;99874.28;5110765;28;19911;-89
2023/05/01 12:44:29;;;;;;;;;;;;;;;23.34;37.00;99883.47;5110396;28;20351;-87
2023/05/01 12:47:07;;;;;;;;;;;;;;;23.25;36.79;99884.94;5110856;28;20400;-85
2023/05/01 12:49:36;;;;;;;;;;;;;;;23.16;37.90;99889.09;5109292;28;19912;-86
2023/05/01 12:52:03;;;;;;;;;;;;;;;23.16;38.58;99889.09;5092896;28;20286;-87
2023/05/01 12:54:39;;;;;;;;;;;;;;;23.36;38.18;99889.63;5092252;28;19954;-87
2023/05/01 12:57:13;;;;;;;;;;;;;;;23.35;37.98;99879.81;5091692;28;20377;-88
2023/05/01 12:59:39;;;;;;;;;;;;;;;22.74;38.49;99882.75;5092449;28;19907;-87
2023/05/01 13:02:11;;;;;;;;;;;;;;;22.51;38.82;99879.66;5108979;28;19915;-87
2023/05/01 13:04:37;;;;;;;;;;;;;;;22.86;39.30;99884.66;5104806;28;20388;-88
2023/05/01 13:07:09;;;;;;;;;;;;;;;23.00;38.00;99881.09;5110188;28;19916;-87
2023/05/01 13:09:35;;;;;;;;;;;;;;;23.04;37.51;99873.69;5110636;28;19950;-87
2023/05/01 13:12:04;;;;;;;;;;;;;;;23.47;38.00;99872.78;5102366;28;20361;-87
2023/05/01 13:14:34;;;;;;;;;;;;;;;23.38;36.32;99883.16;5094308;28;19916;-85
2023/05/01 13:17:00;;;;;;;;;;;;;;;23.39;36.99;99871.44;5090542;28;19922;-85
2023/05/01 13:19:28;;;;;;;;;;;;;;;;;;5070750;28;20014;-85
2023/05/01 13:21:56;;;;;;;;;;;;;;;23.39;35.33;99871.44;5091337;28;19915;-85
2023/05/01 13:24:22;;;;;;;;;;;;;;;23.68;36.43;99873.16;5097701;28;19923;-86
2023/05/01 13:26:55;;;;;;;;;;;;;;;23.62;36.25;99866.38;5109869;28;19968;-86
2023/05/01 13:29:22;;;;;;;;;;;;;;;23.77;35.05;99872.53;5091942;28;20096;-86
2023/05/01 13:31:47;;;;;;;;;;;;;;;23.90;34.30;99873.47;5091476;28;19924;-86